Time;durP1;ratioP1;P1;durP2;ratioP2;P2;SDS_P1;SDS_P2;PMS_P1;PMS_P2;Temp;Humidity;BMP_temperature;BMP_pressure;BME280_temperature;BME280_humidity;BME280_pressure;Samples;Min_cycle;Max_cycle;Signal;HPM_P1;HPM_P2
2022/06/23 00:01:59;;;;;;;;;21.00;17.00;;;;;24.49;95.14;100700.16;5096822;27;46542;-74
2022/06/23 00:04:29;;;;;;;;;21.00;20.00;;;;;24.47;95.06;100699.38;5080527;27;45401;-75
2022/06/23 00:07:05;;;;;;;;;22.00;20.67;;;;;24.41;98.81;100698.81;5100670;27;45484;-75
2022/06/23 00:09:45;;;;;;;;;20.67;19.00;;;;;24.32;100.00;100702.78;5096554;27;45212;-75
2022/06/23 00:12:15;;;;;;;;;25.33;22.00;;;;;24.22;100.00;100693.38;5097923;27;46635;-75
2022/06/23 00:14:40;;;;;;;;;25.67;22.67;;;;;24.11;100.00;100698.41;5097958;27;45443;-75
2022/06/23 00:17:30;;;;;;;;;28.00;26.33;;;;;24.00;100.00;100707.88;5097687;27;45530;-75
2022/06/23 00:19:59;;;;;;;;;25.33;23.67;;;;;23.92;100.00;100704.69;5098639;27;45198;-75
2022/06/23 00:22:27;;;;;;;;;30.25;26.50;;;;;23.86;100.00;100707.63;5079145;27;46924;-74
2022/06/23 00:24:56;;;;;;;;;30.75;27.00;;;;;23.81;100.00;100696.22;5097955;27;45471;-75
2022/06/23 00:27:26;;;;;;;;;27.33;25.67;;;;;23.75;100.00;100680.28;5097918;27;45268;-75
2022/06/23 00:29:52;;;;;;;;;31.00;27.67;;;;;23.69;100.00;100672.47;5079178;27;45412;-76
2022/06/23 00:32:18;;;;;;;;;28.67;28.00;;;;;23.62;100.00;100684.47;5096324;27;65974;-74
2022/06/23 00:34:55;;;;;;;;;28.00;26.00;;;;;23.57;100.00;100684.69;5097044;27;49951;-74
2022/06/23 00:37:21;;;;;;;;;31.75;30.00;;;;;23.50;100.00;100677.81;5080180;27;45482;-75
2022/06/23 00:40:00;;;;;;;;;32.25;31.25;;;;;23.48;100.00;100675.16;5097698;27;45146;-75
2022/06/23 00:42:38;;;;;;;;;34.25;28.75;;;;;23.44;100.00;100670.88;5097690;27;45759;-75
2022/06/23 00:45:09;;;;;;;;;34.75;31.75;;;;;23.39;100.00;100672.91;5072562;27;45201;-75
2022/06/23 00:47:40;;;;;;;;;37.00;31.50;;;;;23.34;100.00;100674.94;5097637;27;45375;-75
2022/06/23 00:50:17;;;;;;;;;30.25;30.00;;;;;23.27;100.00;100668.91;5079970;27;45473;-74
2022/06/23 00:52:51;;;;;;;;;30.75;29.50;;;;;23.23;100.00;100670.03;5096793;27;46327;-75
2022/06/23 00:55:59;;;;;;;;;34.50;30.75;;;;;23.17;100.00;100667.59;5079496;27;45466;-75
2022/06/23 00:58:49;;;;;;;;;34.50;28.75;;;;;23.10;100.00;100665.22;5092146;27;45348;-75
2022/06/23 01:01:21;;;;;;;;;31.25;29.75;;;;;23.06;100.00;100664.47;5079726;27;45234;-74
2022/06/23 01:04:01;;;;;;;;;27.00;25.33;;;;;23.04;100.00;100674.44;5077984;27;47229;-75
2022/06/23 01:06:29;;;;;;;;;27.50;25.75;;;;;23.00;100.00;100671.00;5079221;27;45438;-74
2022/06/23 01:09:02;;;;;;;;;29.67;24.67;;;;;22.97;100.00;100676.53;5096739;27;45302;-75
2022/06/23 01:11:45;;;;;;;;;27.33;24.33;;;;;22.93;100.00;100676.72;5079342;27;45585;-76
2022/06/23 01:14:20;;;;;;;;;23.67;22.67;;;;;22.87;100.00;100666.19;5095961;27;47559;-75
2022/06/23 01:16:49;;;;;;;;;24.00;22.67;;;;;22.84;100.00;100675.25;5097479;27;45450;-75
2022/06/23 01:19:17;;;;;;;;;24.33;24.00;;;;;22.80;100.00;100662.88;5079182;27;45414;-76
2022/06/23 01:21:46;;;;;;;;;27.67;26.67;;;;;22.74;100.00;100660.44;5097466;27;45553;-75
2022/06/23 01:24:34;;;;;;;;;25.33;23.00;;;;;22.71;100.00;100660.56;5096202;27;45537;-75
2022/06/23 01:27:03;;;;;;;;;22.67;22.67;;;;;22.64;100.00;100662.66;5085558;27;45504;-75
2022/06/23 01:29:30;;;;;;;;;29.00;24.67;;;;;22.62;100.00;100664.50;5079238;27;45538;-75
2022/06/23 01:32:06;;;;;;;;;28.00;24.00;;;;;22.61;100.00;100654.69;5075719;27;45561;-74
2022/06/23 01:34:43;;;;;;;;;25.00;23.00;;;;;22.61;100.00;100657.38;5078450;27;46476;-75
2022/06/23 01:37:34;;;;;;;;;29.25;25.75;;;;;22.60;100.00;100654.75;5097168;27;45478;-74
2022/06/23 01:40:10;;;;;;;;;24.00;24.00;;;;;22.61;100.00;100661.91;5096520;27;45212;-74
2022/06/23 01:43:06;;;;;;;;;26.25;23.50;;;;;22.58;100.00;100657.50;5096651;27;45195;-75
2022/06/23 01:45:43;;;;;;;;;26.00;25.33;;;;;22.56;100.00;100653.13;5095830;27;47633;-75
2022/06/23 01:48:51;;;;;;;;;25.33;24.00;;;;;22.49;100.00;100650.69;5078845;27;45359;-74
2022/06/23 01:51:03;;;;;;;;;32.25;25.00;;;;;22.44;100.00;100647.31;5096824;27;45319;-75
2022/06/23 01:53:33;;;;;;;;;25.33;21.67;;;;;22.40;100.00;100652.88;5078363;27;45558;-73
2022/06/23 01:56:09;;;;;;;;;24.00;24.00;;;;;22.36;100.00;100643.19;5094361;27;46518;-75
2022/06/23 01:58:47;;;;;;;;;30.00;27.00;;;;;22.31;100.00;100647.88;5093725;27;45284;-74
2022/06/23 02:01:35;;;;;;;;;26.50;25.00;;;;;22.27;100.00;100644.44;5097060;27;45343;-74
2022/06/23 02:04:12;;;;;;;;;26.75;25.00;;;;;22.25;100.00;100654.38;5094430;27;45481;-74
2022/06/23 02:06:46;;;;;;;;;27.25;25.50;;;;;22.23;100.00;100645.50;5079861;27;46529;-74
2022/06/23 02:09:27;;;;;;;;;30.67;28.00;;;;;22.22;100.00;100659.91;5096314;27;45441;-75
2022/06/23 02:11:53;;;;;;;;;31.00;28.50;;;;;22.20;100.00;100651.88;5078386;27;45263;-74
2022/06/23 02:14:39;;;;;;;;;28.00;25.67;;;;;22.19;100.00;100646.56;5096322;27;45446;-75
2022/06/23 02:17:35;;;;;;;;;29.50;28.50;;;;;22.18;100.00;100648.38;5095950;27;47390;-74
2022/06/23 02:20:22;;;;;;;;;32.75;31.75;;;;;22.21;100.00;100648.25;5096306;27;45614;-75
2022/06/23 02:22:48;;;;;;;;;32.25;30.50;;;;;22.22;100.00;100633.00;5095763;27;45459;-75
2022/06/23 02:25:23;;;;;;;;;33.00;29.25;;;;;22.22;100.00;100641.06;5078251;27;45245;-74
2022/06/23 02:28:08;;;;;;;;;27.25;27.00;;;;;22.22;100.00;100641.94;5095992;27;47375;-75
2022/06/23 02:30:35;;;;;;;;;28.25;26.50;;;;;22.21;100.00;100637.50;5075460;27;45609;-74
2022/06/23 02:33:04;;;;;;;;;34.00;31.50;;;;;22.20;100.00;100640.25;5095641;27;45508;-76
2022/06/23 02:35:43;;;;;;;;;25.50;23.75;;;;;22.20;100.00;100645.63;5096103;27;45398;-74
2022/06/23 02:38:19;;;;;;;;;31.25;27.00;;;;;22.21;100.00;100632.13;5096327;27;47157;-74
2022/06/23 02:40:47;;;;;;;;;28.00;25.25;;;;;22.23;100.00;100629.38;5077540;27;45574;-75
2022/06/23 02:43:19;;;;;;;;;33.25;31.25;;;;;22.25;100.00;100632.84;5077963;27;45332;-75
2022/06/23 02:46:21;;;;;;;;;34.00;30.25;;;;;22.30;100.00;100640.75;5096119;27;45243;-75
2022/06/23 02:49:04;;;;;;;;;30.25;27.50;;;;;22.32;100.00;100626.31;5093903;27;46359;-75
2022/06/23 02:51:54;;;;;;;;;35.50;31.75;;;;;22.34;100.00;100628.94;5096085;27;45449;-75
2022/06/23 02:54:44;;;;;;;;;30.50;26.50;;;;;22.36;100.00;100627.03;5096184;27;45442;-75
2022/06/23 02:57:22;;;;;;;;;35.50;30.50;;;;;22.35;100.00;100631.53;5090837;27;45363;-74
2022/06/23 03:00:13;;;;;;;;;27.00;25.25;;;;;22.36;100.00;100627.91;5081097;27;46407;-74
2022/06/23 03:03:10;;;;;;;;;31.00;29.00;;;;;22.36;100.00;100629.72;5094908;27;45503;-74
2022/06/23 03:05:48;;;;;;;;;31.50;29.75;;;;;22.39;100.00;100629.63;5081008;27;45454;-75
2022/06/23 03:08:50;;;;;;;;;29.50;27.75;;;;;22.40;100.00;100637.63;5100816;27;45232;-75
2022/06/23 03:11:51;;;;;;;;;34.50;30.25;;;;;22.43;100.00;100633.94;5055808;27;46749;-75
2022/06/23 03:14:20;;;;;;;;;33.75;29.75;;;;;22.44;100.00;100633.88;5083250;27;45411;-76
2022/06/23 03:16:51;;;;;;;;;35.50;31.00;;;;;22.47;100.00;100638.22;5081339;27;45458;-76
2022/06/23 03:19:21;;;;;;;;;30.25;26.25;;;;;22.47;100.00;100644.50;5080942;27;45602;-75
2022/06/23 03:21:52;;;;;;;;;33.75;30.25;;;;;22.48;100.00;100643.56;5099356;27;47630;-74
2022/06/23 03:24:54;;;;;;;;;28.50;23.50;;;;;22.51;100.00;100657.84;5098104;27;45382;-74
2022/06/23 03:27:25;;;;;;;;;17.00;16.33;;;;;22.55;100.00;100651.38;5098946;27;45296;-74
2022/06/23 03:29:56;;;;;;;;;16.33;12.67;;;;;22.56;100.00;100648.63;5097937;27;45472;-74
2022/06/23 03:32:48;;;;;;;;;12.67;11.67;;;;;22.63;100.00;100655.50;5097224;27;47566;-74
2022/06/23 03:35:36;;;;;;;;;6.33;6.33;;;;;22.67;100.00;100661.63;5046276;27;46107;-74
2022/06/23 03:38:11;;;;;;;;;7.00;6.00;;;;;22.67;100.00;100661.63;5081117;27;45277;-74
2022/06/23 03:44:16;;;;;;;;;7.00;4.67;;;;;22.71;100.00;100665.97;5040525;27;45948;-75
2022/06/23 03:47:31;;;;;;;;;5.00;4.00;;;;;22.67;100.00;100675.97;5098621;27;45401;-75
2022/06/23 03:50:04;;;;;;;;;6.00;5.33;;;;;22.64;100.00;100673.41;5098402;27;45311;-74
2022/06/23 03:52:37;;;;;;;;;4.00;4.00;;;;;22.64;100.00;100673.41;5098539;27;45348;-74
2022/06/23 03:55:21;;;;;;;;;6.67;3.33;;;;;;;;5080133;27;48330;-74
2022/06/23 03:58:00;;;;;;;;;5.00;5.00;;;;;22.66;100.00;100681.41;5092241;27;45433;-74
2022/06/23 04:00:33;;;;;;;;;6.00;4.00;;;;;22.63;100.00;100678.84;5080645;27;45367;-74
2022/06/23 04:03:23;;;;;;;;;5.00;5.00;;;;;22.62;100.00;100687.88;5080501;27;46107;-75
2022/06/23 04:05:54;;;;;;;;;5.00;5.00;;;;;22.62;100.00;100690.56;5096467;27;47614;-74
2022/06/23 04:08:20;;;;;;;;;6.33;4.33;;;;;22.59;100.00;100710.41;5097906;27;45588;-74
2022/06/23 04:10:45;;;;;;;;;6.00;3.33;;;;;22.57;100.00;100704.19;5079389;27;45374;-75
2022/06/23 04:13:33;;;;;;;;;6.00;4.00;;;;;22.57;100.00;100704.19;5097622;27;65820;-74
2022/06/23 04:16:08;;;;;;;;;4.33;4.33;;;;;22.57;100.00;100706.00;5096936;27;47735;-75
2022/06/23 04:18:38;;;;;;;;;4.33;4.33;;;;;22.56;100.00;100715.03;5096339;27;45467;-74
2022/06/23 04:21:09;;;;;;;;;7.33;3.00;;;;;22.49;100.00;100717.09;5079540;27;45518;-75
2022/06/23 04:23:45;;;;;;;;;4.00;4.00;;;;;22.45;100.00;100713.66;5098002;27;45556;-75
2022/06/23 04:26:26;;;;;;;;;6.00;6.00;;;;;22.45;100.00;100718.16;5079147;27;46659;-75
2022/06/23 04:28:53;;;;;;;;;5.33;3.00;;;;;22.43;100.00;100720.91;5097657;27;45446;-74
2022/06/23 04:31:29;;;;;;;;;3.00;3.00;;;;;22.36;100.00;100722.06;5079006;27;45425;-74
2022/06/23 04:33:55;;;;;;;;;2.33;2.33;;;;;22.27;100.00;100727.84;5076210;27;45622;-75
2022/06/23 04:36:23;;;;;;;;;3.33;3.33;;;;;22.23;100.00;100736.97;5079478;27;46349;-74
2022/06/23 04:38:56;;;;;;;;;4.33;4.00;;;;;22.20;100.00;100737.06;5079561;27;45581;-74
2022/06/23 04:41:29;;;;;;;;;5.00;4.00;;;;;22.19;100.00;100732.63;5079013;27;45356;-74
2022/06/23 04:44:05;;;;;;;;;3.67;3.00;;;;;22.19;100.00;100728.13;5079962;27;45392;-80
2022/06/23 04:46:36;;;;;;;;;5.67;4.33;;;;;22.20;100.00;100731.69;5094804;27;46429;-76
2022/06/23 04:49:23;;;;;;;;;4.00;2.67;;;;;22.18;100.00;100728.19;5073055;27;45594;-75
2022/06/23 04:52:13;;;;;;;;;3.00;3.00;;;;;22.18;100.00;100729.06;5073991;27;45609;-75
2022/06/23 04:54:48;;;;;;;;;6.33;5.00;;;;;22.20;100.00;100732.56;5097287;27;45493;-77
2022/06/23 04:57:29;;;;;;;;;4.33;3.00;;;;;22.22;100.00;100737.91;5067721;27;47389;-77
2022/06/23 04:59:56;;;;;;;;;4.00;4.00;;;;;22.25;100.00;100736.88;5097888;27;45343;-77
2022/06/23 05:02:25;;;;;;;;;4.67;4.00;;;;;22.21;100.00;100733.44;5079114;27;45483;-77
2022/06/23 05:04:55;;;;;;;;;5.00;3.33;;;;;22.19;100.00;100743.38;5097161;27;45336;-77
2022/06/23 05:07:32;;;;;;;;;5.00;3.00;;;;;22.19;100.00;100738.00;5096564;27;46516;-77
2022/06/23 05:10:06;;;;;;;;;4.33;4.00;;;;;22.19;100.00;100738.00;5093443;27;45435;-76
2022/06/23 05:12:38;;;;;;;;;7.33;4.00;;;;;22.15;100.00;100739.06;5079063;27;45448;-77
2022/06/23 05:15:15;;;;;;;;;7.00;4.00;;;;;22.15;100.00;100744.44;5079035;27;45627;-77
2022/06/23 05:17:51;;;;;;;;;6.00;4.00;;;;;22.10;100.00;100736.53;5090705;27;47846;-77
2022/06/23 05:20:21;;;;;;;;;8.33;5.33;;;;;22.07;100.00;100752.78;5093971;27;45340;-77
2022/06/23 05:22:47;;;;;;;;;4.67;4.00;;;;;22.06;100.00;100750.16;5096503;27;45389;-75
2022/06/23 05:25:15;;;;;;;;;5.00;5.00;;;;;22.03;100.00;100745.75;5096482;27;45447;-74
2022/06/23 05:27:43;;;;;;;;;4.67;3.00;;;;;22.04;100.00;100752.00;5097417;27;47319;-74
2022/06/23 05:30:14;;;;;;;;;6.00;4.00;;;;;22.04;100.00;100752.88;5096741;27;45552;-74
2022/06/23 05:32:48;;;;;;;;;5.00;4.00;;;;;22.04;100.00;100754.69;5086530;27;45454;-74
2022/06/23 05:35:19;;;;;;;;;4.00;4.00;;;;;22.04;100.00;100752.00;5097029;27;45550;-74
2022/06/23 05:37:50;;;;;;;;;4.33;3.00;;;;;22.05;100.00;100756.44;5096904;27;48041;-75
2022/06/23 05:40:22;;;;;;;;;5.67;2.67;;;;;22.05;100.00;100751.97;5096932;27;45395;-74
2022/06/23 05:42:50;;;;;;;;;4.00;3.33;;;;;22.08;100.00;100753.63;5078596;27;45200;-75
2022/06/23 05:45:26;;;;;;;;;6.67;5.00;;;;;22.12;100.00;100740.06;5096281;27;45466;-74
2022/06/23 05:47:52;;;;;;;;;3.00;3.00;;;;;22.13;100.00;100747.19;5077762;27;46634;-75
2022/06/23 05:50:27;;;;;;;;;6.00;3.00;;;;;22.11;100.00;100751.75;5078333;27;45387;-75
2022/06/23 05:52:54;;;;;;;;;2.33;2.33;;;;;22.05;100.00;100740.31;5096390;27;45431;-75
2022/06/23 05:55:28;;;;;;;;;4.00;3.00;;;;;22.01;100.00;100739.56;5077724;27;45507;-75
2022/06/23 05:57:57;;;;;;;;;5.33;5.00;;;;;22.01;100.00;100744.94;5095904;27;47508;-75
2022/06/23 06:00:37;;;;;;;;;4.00;4.00;;;;;22.00;100.00;100745.88;5077602;27;45474;-75
2022/06/23 06:03:07;;;;;;;;;5.00;3.67;;;;;21.97;100.00;100744.16;5090475;27;45504;-75
2022/06/23 06:05:36;;;;;;;;;5.00;4.00;;;;;22.00;100.00;100735.13;5177514;22;45462;-75
2022/06/23 06:08:07;;;;;;;;;6.33;5.00;;;;;21.97;100.00;100730.72;5074660;27;46426;-74
2022/06/23 06:10:34;;;;;;;;;5.00;4.00;;;;;22.01;100.00;100727.94;5074095;28;45460;-74
2022/06/23 06:13:01;;;;;;;;;4.67;4.00;;;;;22.02;100.00;100718.91;5075048;28;45838;-75
2022/06/23 06:15:32;;;;;;;;;9.33;5.33;;;;;22.03;100.00;100726.91;5075204;28;45584;-75
2022/06/23 06:18:30;;;;;;;;;5.33;5.00;;;;;22.04;100.00;100727.78;5065915;27;46423;-76
2022/06/23 06:20:58;;;;;;;;;6.33;5.00;;;;;22.13;100.00;100722.97;5070590;27;45536;-74
2022/06/23 06:23:27;;;;;;;;;7.00;5.33;;;;;22.21;100.00;100722.66;5073898;28;45395;-75
2022/06/23 06:25:53;;;;;;;;;6.67;5.67;;;;;22.26;100.00;100715.31;5075837;28;45504;-73
2022/06/23 06:28:20;;;;;;;;;6.67;5.00;;;;;22.35;100.00;100717.63;5074504;27;68162;-74
2022/06/23 06:30:59;;;;;;;;;7.00;5.33;;;;;22.42;100.00;100724.50;5076905;27;45312;-74
2022/06/23 06:34:03;;;;;;;;;8.00;5.67;;;;;22.47;100.00;100725.22;5075886;28;45497;-74
2022/06/23 06:36:37;;;;;;;;;9.33;6.67;;;;;22.53;100.00;100734.88;5071173;28;45438;-74
2022/06/23 06:39:21;;;;;;;;;5.33;5.33;;;;;22.64;100.00;100734.44;5070905;28;47593;-74
2022/06/23 06:41:51;;;;;;;;;9.00;5.67;;;;;22.73;100.00;100739.44;5068638;28;45410;-74
2022/06/23 06:44:17;;;;;;;;;6.67;6.33;;;;;22.81;100.00;100728.38;5077744;28;45450;-74
2022/06/23 06:46:43;;;;;;;;;8.00;5.33;;;;;22.79;100.00;100720.34;5076562;27;45655;-73
2022/06/23 06:49:18;;;;;;;;;9.33;6.33;;;;;22.78;100.00;100720.41;5077072;28;46395;-74
2022/06/23 06:51:44;;;;;;;;;5.00;5.00;;;;;22.73;100.00;100725.97;5078637;27;45502;-74
2022/06/23 06:54:17;;;;;;;;;7.33;6.67;;;;;22.69;100.00;100729.72;5078948;27;45389;-74
2022/06/23 06:56:46;;;;;;;;;7.00;6.00;;;;;22.69;100.00;100732.41;5074487;28;45437;-73
2022/06/23 06:59:24;;;;;;;;;10.00;5.33;;;;;22.65;100.00;100738.88;5077148;28;46655;-74
2022/06/23 07:01:57;;;;;;;;;6.33;5.00;;;;;22.64;100.00;100729.94;5076601;27;45431;-74
2022/06/23 07:04:28;;;;;;;;;7.00;6.00;;;;;22.65;100.00;100733.50;5074371;27;45581;-76
2022/06/23 07:07:00;;;;;;;;;6.00;6.00;;;;;22.64;100.00;100739.84;5069272;28;45938;-77
2022/06/23 07:09:36;;;;;;;;;7.67;6.33;;;;;22.66;100.00;100743.31;5076097;28;47427;-79
2022/06/23 07:12:52;;;;;;;;;7.00;7.00;;;;;22.68;100.00;100734.22;5079102;27;46292;-76
2022/06/23 07:15:23;;;;;;;;;8.00;6.00;;;;;22.71;100.00;100747.59;5077189;28;45608;-77
2022/06/23 07:18:04;;;;;;;;;5.00;4.67;;;;;22.71;100.00;100738.63;5072596;28;45457;-77
2022/06/23 07:20:42;;;;;;;;;6.33;6.00;;;;;22.71;100.00;100727.88;5078221;27;45649;-76
2022/06/23 07:23:21;;;;;;;;;6.67;4.33;;;;;22.69;100.00;100725.25;5076332;27;45497;-78
2022/06/23 07:25:53;;;;;;;;;6.00;6.00;;;;;22.69;100.00;100733.31;5077636;28;45276;-76
2022/06/23 07:28:22;;;;;;;;;5.33;4.33;;;;;22.69;100.00;100745.88;5074917;28;45339;-73
2022/06/23 07:30:53;;;;;;;;;5.33;5.00;;;;;22.70;100.00;100747.66;5076084;27;47211;-73
2022/06/23 07:33:26;;;;;;;;;7.00;7.00;;;;;22.71;100.00;100755.66;5079921;27;45634;-73
2022/06/23 07:36:04;;;;;;;;;8.00;5.67;;;;;22.74;100.00;100751.94;5074928;27;45479;-73
2022/06/23 07:38:49;;;;;;;;;9.00;6.00;;;;;22.77;100.00;100762.59;5077519;28;45334;-73
2022/06/23 07:41:30;;;;;;;;;4.67;4.67;;;;;22.78;100.00;100758.97;5076811;28;46709;-73
2022/06/23 07:44:02;;;;;;;;;8.00;6.33;;;;;22.80;100.00;100762.50;5072673;27;45549;-73
2022/06/23 07:46:28;;;;;;;;;6.33;5.33;;;;;22.84;100.00;100756.03;5074662;28;45614;-73
2022/06/23 07:48:53;;;;;;;;;8.00;6.67;;;;;22.91;100.00;100751.31;5075257;28;45506;-73
2022/06/23 07:51:20;;;;;;;;;7.00;7.00;;;;;22.95;100.00;100753.78;5077105;28;65082;-73
2022/06/23 07:53:47;;;;;;;;;6.67;6.00;;;;;23.01;100.00;100768.84;5078221;27;45556;-73
2022/06/23 07:56:16;;;;;;;;;7.00;5.67;;;;;23.06;100.00;100763.25;5074929;27;45419;-73
2022/06/23 07:58:42;;;;;;;;;8.33;6.67;;;;;23.08;100.00;100766.78;5072760;28;45503;-72
2022/06/23 08:01:15;;;;;;;;;9.00;7.00;;;;;23.13;100.00;100759.38;5077804;27;46617;-73
2022/06/23 08:03:50;;;;;;;;;6.00;6.00;;;;;23.17;100.00;100755.59;5075571;28;45933;-73
2022/06/23 08:06:18;;;;;;;;;7.00;7.00;;;;;23.23;100.00;100758.06;5076837;27;45395;-72
2022/06/23 08:08:45;;;;;;;;;8.00;6.00;;;;;23.27;100.00;100757.81;5075864;28;45475;-73
2022/06/23 08:14:02;;;;;;;;;6.67;6.67;;;;;23.32;100.00;100754.94;5075566;28;45323;-73
2022/06/23 08:19:32;;;;;;;;;7.33;6.00;;;;;23.39;100.00;100753.75;5072800;28;45453;-72
2022/06/23 08:22:22;;;;;;;;;6.00;6.00;;;;;23.47;100.00;100756.09;5066866;27;47573;-72
2022/06/23 08:24:50;;;;;;;;;8.00;8.00;;;;;23.50;100.00;100756.84;5081825;27;45479;-73
2022/06/23 08:27:19;;;;;;;;;9.33;8.33;;;;;23.52;100.00;100754.94;5072637;27;47021;-73
2022/06/23 08:29:50;;;;;;;;;8.00;6.00;;;;;23.52;100.00;100752.25;5073006;28;45526;-72
2022/06/23 08:32:16;;;;;;;;;7.00;7.00;;;;;23.57;100.00;100756.56;5074819;28;46467;-73
2022/06/23 08:35:14;;;;;;;;;7.00;7.00;;;;;23.60;100.00;100756.47;5075594;28;69192;-73
2022/06/23 08:37:45;;;;;;;;;6.00;5.67;;;;;23.62;100.00;100741.94;5073745;28;45389;-73
2022/06/23 08:40:19;;;;;;;;;8.00;7.00;;;;;23.64;100.00;100744.59;5077937;27;45375;-72
2022/06/23 08:42:56;;;;;;;;;5.00;5.00;;;;;23.68;100.00;100749.78;5076856;27;46977;-73
2022/06/23 08:45:29;;;;;;;;;7.00;7.00;;;;;23.74;100.00;100756.72;5076728;27;45593;-73
2022/06/23 08:48:11;;;;;;;;;9.00;6.00;;;;;23.76;100.00;100757.56;5074350;27;45511;-73
2022/06/23 08:50:51;;;;;;;;;7.00;4.33;;;;;23.81;100.00;100754.63;5068887;28;45602;-72
2022/06/23 08:53:38;;;;;;;;;7.33;6.00;;;;;23.85;100.00;100765.22;5074001;28;47666;-73
2022/06/23 08:56:18;;;;;;;;;8.00;8.00;;;;;23.88;100.00;100759.69;5070759;28;45412;-73
2022/06/23 08:58:52;;;;;;;;;9.67;7.33;;;;;23.91;100.00;100756.84;5084395;27;45478;-72
2022/06/23 09:01:30;;;;;;;;;7.33;6.00;;;;;23.96;100.00;100752.13;5073452;28;45683;-73
2022/06/23 09:04:20;;;;;;;;;5.33;5.33;;;;;24.04;100.00;100757.16;5075500;28;47845;-73
2022/06/23 09:07:02;;;;;;;;;5.33;5.00;;;;;24.14;100.00;100747.72;5062720;28;45390;-74
2022/06/23 09:09:50;;;;;;;;;7.00;6.00;;;;;24.23;99.35;100749.94;5071581;28;45774;-73
2022/06/23 09:12:22;;;;;;;;;4.33;4.33;;;;;24.28;98.87;100750.63;5077026;27;45430;-72
2022/06/23 09:14:57;;;;;;;;;7.00;6.00;;;;;24.37;98.74;100745.78;5075826;28;47350;-72
2022/06/23 09:18:00;;;;;;;;;6.67;5.67;;;;;24.45;99.49;100747.16;5066973;28;45474;-72
2022/06/23 09:20:40;;;;;;;;;6.33;5.67;;;;;24.54;99.73;100744.00;5075537;28;45616;-72
2022/06/23 09:23:05;;;;;;;;;5.00;5.00;;;;;24.60;98.28;100744.66;5074537;28;45403;-72
2022/06/23 09:25:54;;;;;;;;;8.67;6.67;;;;;24.64;97.53;100752.53;5075286;28;47056;-73
2022/06/23 09:28:58;;;;;;;;;6.00;5.00;;;;;24.68;96.95;100751.44;5075371;27;45461;-73
2022/06/23 09:31:40;;;;;;;;;4.00;4.00;;;;;24.75;96.31;100755.59;4993684;28;45532;-73
2022/06/23 09:34:12;;;;;;;;;5.00;5.00;;;;;24.77;95.41;100751.00;5064626;28;45493;-73
2022/06/23 09:36:42;;;;;;;;;7.67;6.67;;;;;24.77;95.20;100748.31;5073109;28;47734;-73
2022/06/23 09:39:30;;;;;;;;;6.67;5.00;;;;;24.77;95.66;100736.63;5075050;28;45938;-72
2022/06/23 09:42:14;;;;;;;;;9.00;6.00;;;;;24.78;95.40;100735.69;5076104;27;45617;-73
2022/06/23 09:45:00;;;;;;;;;6.00;6.00;;;;;24.78;94.55;100731.16;5076407;28;45288;-73
2022/06/23 09:47:33;;;;;;;;;8.67;6.00;;;;;24.73;94.79;100729.63;5069928;28;47333;-73
2022/06/23 09:50:25;;;;;;;;;5.00;5.00;;;;;24.74;94.25;100731.38;5076263;27;45166;-73
2022/06/23 09:53:03;;;;;;;;;9.00;5.33;;;;;24.74;94.54;100732.25;5074856;28;45442;-73
2022/06/23 09:55:51;;;;;;;;;5.00;5.00;;;;;24.78;94.64;100736.56;5076221;27;45410;-73
2022/06/23 09:58:46;;;;;;;;;6.67;5.00;;;;;24.87;94.53;100737.91;5072954;28;47494;-73
2022/06/23 10:01:26;;;;;;;;;6.67;6.67;;;;;24.93;93.23;100729.50;5073489;28;45408;-73
2022/06/23 10:04:33;;;;;;;;;7.00;5.67;;;;;25.00;93.14;100730.06;5074868;28;45430;-73
2022/06/23 10:07:10;;;;;;;;;7.00;7.00;;;;;25.05;92.15;100734.28;5010120;28;45477;-72
2022/06/23 10:10:12;;;;;;;;;10.00;10.00;;;;;25.11;91.96;100732.25;5065618;28;47333;-72
2022/06/23 10:12:56;;;;;;;;;8.67;5.67;;;;;25.21;91.60;100739.81;5076108;28;45278;-72
2022/06/23 10:15:30;;;;;;;;;6.00;6.00;;;;;25.30;91.11;100741.16;5076064;27;45327;-75
2022/06/23 10:18:01;;;;;;;;;6.00;6.00;;;;;25.39;90.61;100735.28;5071316;27;45557;-72
2022/06/23 10:21:05;;;;;;;;;5.33;5.33;;;;;25.51;90.87;100734.63;5074634;27;46513;-75
2022/06/23 10:23:42;;;;;;;;;5.67;5.00;;;;;25.62;90.03;100728.69;5012733;28;45566;-75
2022/06/23 10:26:31;;;;;;;;;7.00;6.00;;;;;25.71;90.40;100733.59;5011931;28;45612;-76
2022/06/23 10:29:23;;;;;;;;;5.00;5.00;;;;;25.84;89.22;100739.25;5054525;28;45608;-75
2022/06/23 10:32:10;;;;;;;;;6.33;6.00;;;;;26.03;89.42;100733.69;5073330;28;46594;-76
2022/06/23 10:35:03;;;;;;;;;5.67;5.67;;;;;26.19;89.04;100737.31;5075415;27;45416;-75
2022/06/23 10:37:56;;;;;;;;;6.33;5.00;;;;;26.31;88.20;100733.03;5072503;28;45486;-75
2022/06/23 10:40:30;;;;;;;;;7.00;7.00;;;;;26.37;88.63;100727.31;5075492;28;45324;-73
2022/06/23 10:43:01;;;;;;;;;6.00;6.00;;;;;26.40;87.86;100724.41;5075326;28;46805;-71
2022/06/23 10:45:59;;;;;;;;;8.33;6.33;;;;;26.38;86.52;100726.34;5074527;28;45305;-73
2022/06/23 10:48:48;;;;;;;;;7.33;4.33;;;;;26.33;85.98;100718.47;5034090;27;45538;-72
2022/06/23 10:51:44;;;;;;;;;9.00;7.00;;;;;26.38;86.14;100720.94;5073186;28;45512;-72
2022/06/23 10:54:19;;;;;;;;;6.33;5.00;;;;;26.46;85.15;100715.97;5071971;28;47692;-72
2022/06/23 10:57:22;;;;;;;;;7.33;6.00;;;;;26.58;85.42;100711.69;5070447;27;45283;-73
2022/06/23 10:59:48;;;;;;;;;6.33;6.33;;;;;26.74;82.90;100717.97;5074040;28;45424;-73
2022/06/23 11:02:43;;;;;;;;;342.33;341.33;;;;;26.90;82.64;100709.84;5075490;28;45389;-73
2022/06/23 11:05:20;;;;;;;;;5.33;5.00;;;;;27.01;80.98;100698.34;5074358;28;46803;-72
2022/06/23 11:08:11;;;;;;;;;5.00;5.00;;;;;27.12;80.15;100710.34;5071003;27;46595;-72
2022/06/23 11:10:43;;;;;;;;;8.00;5.00;;;;;27.13;80.50;100700.34;5073869;28;45565;-72
2022/06/23 11:13:29;;;;;;;;;5.33;5.33;;;;;27.10;80.31;100704.09;5075245;28;45384;-72
2022/06/23 11:16:27;;;;;;;;;5.33;5.00;;;;;27.14;81.02;100700.25;5073783;27;46522;-73
2022/06/23 11:19:05;;;;;;;;;4.67;4.67;;;;;27.27;79.00;100704.94;5073315;28;45580;-72
2022/06/23 11:22:08;;;;;;;;;6.00;6.00;;;;;27.37;80.18;100698.84;5077034;28;45431;-73
2022/06/23 11:24:45;;;;;;;;;9.33;5.00;;;;;27.46;79.14;100689.28;5078084;28;45730;-73
2022/06/23 11:27:23;;;;;;;;;8.00;5.00;;;;;27.51;79.41;100686.31;5072819;28;46559;-73
2022/06/23 11:30:42;;;;;;;;;7.33;6.00;;;;;27.60;79.95;100694.75;5071374;28;45384;-73
2022/06/23 11:33:20;;;;;;;;;4.33;4.33;;;;;27.61;78.98;100690.19;5014634;28;45532;-72
2022/06/23 11:36:03;;;;;;;;;10.00;6.33;;;;;27.65;77.50;100689.03;5077328;28;45526;-72
2022/06/23 11:38:42;;;;;;;;;4.00;4.00;;;;;27.73;79.36;100680.44;5066724;27;46646;-72
2022/06/23 12:04:58;;;;;;;;;6.33;5.00;;;;;28.13;73.34;100657.06;5070821;28;45733;-72
2022/06/23 12:07:37;;;;;;;;;5.33;5.33;;;;;28.31;71.42;100654.97;5072968;28;45566;-72
2022/06/23 12:10:20;;;;;;;;;8.00;7.00;;;;;28.44;72.37;100651.41;5075682;27;45453;-72
2022/06/23 12:12:48;;;;;;;;;4.67;4.67;;;;;28.64;72.52;100652.75;5068576;28;45518;-72
2022/06/23 12:15:17;;;;;;;;;5.67;4.67;;;;;28.75;72.68;100643.00;5074403;28;46562;-72
2022/06/23 12:17:48;;;;;;;;;7.33;6.00;;;;;28.82;70.72;100647.94;5071349;28;45519;-72
2022/06/23 12:20:19;;;;;;;;;6.00;5.00;;;;;28.86;70.82;100632.28;5072216;28;45624;-73
2022/06/23 12:23:07;;;;;;;;;8.00;6.00;;;;;28.84;69.42;100634.25;5074100;28;45644;-72
2022/06/23 12:26:11;;;;;;;;;4.33;4.33;;;;;28.75;69.48;100622.13;5074094;28;47286;-73
2022/06/23 12:28:46;;;;;;;;;8.33;7.00;;;;;28.77;67.23;100624.78;5074109;27;45524;-72
2022/06/23 12:31:20;;;;;;;;;4.33;4.33;;;;;29.01;68.36;100623.09;5070203;28;45564;-73
2022/06/23 12:33:56;;;;;;;;;4.00;4.00;;;;;29.25;67.60;100620.53;5075773;28;45406;-73
2022/06/23 12:36:39;;;;;;;;;5.00;4.00;;;;;29.46;67.88;100613.56;5070577;28;46207;-72